メインページ
METAR-TAF:

METAR-TAF

空港 :

台湾桃園国際空港

台北, 台湾

緯度: 25-05N, 経度: 121-13E, 海抜: 33m

現時点の気象観測

当レポートは12分前の12:00(UTC)に作成
西/南西の風 5kt、南/南西から西の間で変化する
気温 28°C
湿度 79%
気圧 1009 hPa
視程10km以上
高度2000ftの雲はほとんどない

METAR: RCTP 221200Z 24005KT 200V260 9999 FEW020 28/24 Q1009 NOSIG RMK A2981

時間: 20:12 (12:12 UTC)

予報

当レポートは1時間11分前の11:01(UTC)に作成
予報は22日の 12時(UTC)から 23日の 18時(UTC)まで有効
西の風 5kt
視程10km以上
高度2000ftの雲はほとんどない
高度3200ftの千切れ雲あり
22日の 16時(UTC)から 22日の 19時(UTC)まで一時的に
北西の風 12kt
視程: 5000m
高度1000ftの雲はほとんどない
高度1700ftの千切れ雲あり
高度4000ftの千切れ雲あり
にわか雨
22日の 19時(UTC)から 22日の 24時(UTC)まで一時的に
南西の風 5kt
高度1200ftの雲はほとんどない
高度2000ftの千切れ雲あり
23日の 01時(UTC)から 23日の 06時(UTC)まで一時的に
の風 5kt
23日の 06時(UTC)から 23日の 08時(UTC)まで徐々に
北/北東の風 10kt

TAF: RCTP 221101Z 2212/2318 28005KT 9999 FEW020 BKN032 TEMPO 2216/2219 31012KT 5000 SHRA FEW010 BKN017 BKN040 TEMPO 2219/2224 23005KT FEW012 BKN020 TEMPO 2301/2306 01005KT BECMG 2306/2308 03010KT

4,000以上の空港の気象観測と天気予報(METAR報とTAF報)

利用可能な観測所は地図上に黄色い丸と赤い丸で示す。

丸の上にカーソルを重ねると観測所名を参照できる。

次にクリックすると気象観測と天気予報を参照できる。

マップの切り替え:黒色「×」印の緑ボタンをクリックして拡大、「-」印の緑ボタンをクリックして縮小、緑色の三角印をクリックして隣りの地図に切り替え


METAR-TAF: